• Join FlightAware (Why Join?)
  • Login
  • US Flag 
10:04AM EDT


 

Airport Tracker/Info


-or-


 

Live Flight TrackerFlight Track Log ✈ KAP29 ✈ 07-Jun-2013 ✈ KSLK - KBOS

Flight Track Log - Related Links

Times and Time Zones

All times are in EDT time to prevent confusion due to time zone crossing. See the KAP29 flight status page for this flight to view local times or setup timezone preferences in your user account.

Time Position Orientation Groundspeed Altitude Reporting Facility
EDT Latitude Longitude Course Direction KTS MPH feet Rate Location/Type
05:16PM 44.3707 -74.1728 122° Southeast  Level FlightAware Approximate
05:20PM 44.4808 -74.0869 122° Southeast 154 177 5,400  Level Boston Center
05:21PM 44.4711 -74.0400 106° East 114 131 6,400 1,080 Climbing Boston Center
05:22PM 44.4486 -73.9989 127° Southeast 120 138 7,600 1,020 Climbing Boston Center
05:23PM 44.4242 -73.9544 128° Southeast 126 145 8,500 660 Climbing Boston Center
05:24PM 44.4000 -73.9103 127° Southeast 136 157 9,000 240 Climbing Boston Center
05:25PM 44.3797 -73.8603 120° Southeast 141 162 9,000  Level Boston Center
05:26PM 44.3575 -73.8019 118° Southeast 154 177 9,000  Level Boston Center
05:27PM 44.3331 -73.7606 130° Southeast 160 184 9,000  Level Boston Center
05:28PM 44.3025 -73.6961 124° Southeast 171 197 9,000  Level Boston Center
05:29PM 44.2758 -73.6433 125° Southeast 171 197 9,000  Level Boston Center
05:30PM 44.2472 -73.5847 124° Southeast 176 203 9,000  Level Boston Center
05:31PM 44.2208 -73.5292 124° Southeast 176 203 9,000  Level Boston Center
05:32PM 44.1922 -73.4736 126° Southeast 176 203 9,000  Level Boston Center
05:33PM 44.1633 -73.4183 126° Southeast 176 203 9,000  Level Boston Center
05:34PM 44.1347 -73.3656 127° Southeast 176 203 9,000  Level Boston Center
05:35PM 44.1100 -73.3133 123° Southeast 171 197 9,000  Level Boston Center
05:36PM 44.0814 -73.2581 126° Southeast 179 206 9,000  Level Boston Center
05:37PM 44.0586 -73.2086 123° Southeast 172 198 9,000  Level Boston Center
05:38PM 44.0319 -73.1561 125° Southeast 172 198 9,000  Level Boston Center
05:39PM 44.0053 -73.1011 124° Southeast 177 204 9,000  Level Boston Center
05:40PM 43.9764 -73.0458 126° Southeast 177 204 9,000  Level Boston Center
05:41PM 43.9494 -72.9936 126° Southeast 172 198 9,000  Level Boston Center
05:42PM 43.9206 -72.9386 126° Southeast 178 205 9,000  Level Boston Center
05:43PM 43.8917 -72.8808 125° Southeast 172 198 9,000  Level Boston Center
05:44PM 43.8669 -72.8258 122° Southeast 172 198 9,000  Level Boston Center
05:45PM 43.8400 -72.7769 127° Southeast 172 198 9,000  Level Boston Center
05:46PM 43.8150 -72.7278 125° Southeast 172 198 9,000  Level Boston Center
05:47PM 43.7903 -72.6789 125° Southeast 167 192 9,000  Level Boston Center
05:48PM 43.7653 -72.6269 124° Southeast 167 192 9,100  Climbing Boston Center
05:49PM 43.7383 -72.5781 127° Southeast 161 185 9,100  Level Boston Center
05:50PM 43.7111 -72.5261 126° Southeast 161 185 9,100  Level Boston Center
05:51PM 43.6883 -72.4744 121° Southeast 161 185 9,100  Level Boston Center
05:52PM 43.6611 -72.4228 126° Southeast 161 185 9,100  Level Boston Center
05:53PM 43.6361 -72.3742 125° Southeast 161 185 9,100  Level Boston Center
05:54PM 43.6111 -72.3253 125° Southeast 161 185 9,100  Level Boston Center
05:55PM 43.5839 -72.2767 128° Southeast 161 185 9,100  Level Boston Center
05:56PM 43.5589 -72.2308 127° Southeast 161 185 9,100  Level Boston Center
05:57PM 43.5339 -72.1794 124° Southeast 161 185 9,100  Level Boston Center
05:58PM 43.5108 -72.1281 122° Southeast 161 185 9,100  Level Boston Center
05:59PM 43.4856 -72.0825 127° Southeast 156 180 9,100  Level Boston Center
06:00PM 43.4606 -72.0339 125° Southeast 156 180 9,100  Level Boston Center
06:01PM 43.4331 -71.9828 127° Southeast 156 180 9,100  Level Boston Center
06:02PM 43.4122 -71.9428 126° Southeast 156 180 9,100  Level Boston Center
06:03PM 43.3722 -71.8944 139° Southeast 156 180 9,100  Level Boston Center
06:04PM 43.3431 -71.8606 140° Southeast 151 174 9,100  Level Boston Center
06:05PM 43.3072 -71.8153 137° Southeast 157 181 9,100  Level Boston Center
06:06PM 43.2800 -71.7756 133° Southeast 157 181 9,100  Level Boston Center
06:07PM 43.2444 -71.7303 137° Southeast 157 181 9,100  Level Boston Center
06:08PM 43.2169 -71.6936 136° Southeast 157 181 9,100 -240 Level Boston Center
06:09PM 43.1792 -71.6486 139° Southeast 162 186 8,700 -480 Descending Boston Center
06:10PM 43.1500 -71.6167 141° Southeast 171 197 8,400 -600 Descending KA90
06:11PM 43.1167 -71.5667 132° Southeast 195 224 7,800 -600 Descending KA90
06:12PM 43.0833 -71.5167 132° Southeast 227 261 7,200 -540 Descending KA90
06:13PM 43.0500 -71.4667 132° Southeast 180 207 6,700 -480 Descending KA90
06:14PM 43.0167 -71.4333 144° Southeast 169 194 6,300 -300 Descending KA90
06:15PM 42.9833 -71.3833 132° Southeast 164 189 6,100 -180 Descending KA90
06:16PM 42.9500 -71.3500 144° Southeast 154 177 6,000 -60 Descending KA90
06:17PM 42.9167 -71.3167 144° Southeast 150 173 6,000  Level KA90
06:18PM 42.8833 -71.2833 144° Southeast 148 170 6,000 -120 Level KA90
06:19PM 42.8500 -71.2500 144° Southeast 153 176 5,800 -240 Descending KA90
06:20PM 42.8167 -71.2333 160° South 153 176 5,600 -300 Descending KA90
06:21PM 42.7667 -71.2167 166° South 155 178 5,300 -300 Descending KA90
06:22PM 42.7333 -71.2000 160° South 153 176 5,100 -120 Descending KA90
06:23PM 42.7000 -71.1667 144° Southeast 146 168 5,100  Level KA90
06:24PM 42.6500 -71.1500 166° South 140 161 5,100 -60 Level KA90
06:25PM 42.6167 -71.1833 216° Southwest 153 176 5,000 -60 Descending KA90
06:26PM 42.6000 -71.2333 246° West 153 176 5,000  Level KA90
06:27PM 42.5667 -71.2833 228° Southwest 152 175 5,000  Level KA90
06:28PM 42.5500 -71.3167 236° Southwest 151 174 5,000  Level KA90
06:29PM 42.5167 -71.3000 160° South 146 168 5,000  Level KA90
06:30PM 42.5167 -71.2500 90° East 151 174 5,000  Level KA90
06:31PM 42.5000 -71.1833 109° East 157 181 5,000  Level KA90
06:32PM 42.4833 -71.1333 114° Southeast 140 161 5,000  Level KA90
06:33PM 42.4500 -71.1333 180° South 140 161 5,000  Level KA90
06:34PM 42.4167 -71.1500 200° South 137 158 5,000  Level KA90
06:35PM 42.3833 -71.1833 216° Southwest 137 158 5,000  Level KA90
06:36PM 42.3500 -71.2000 200° South 137 158 5,000 -180 Level KA90
06:37PM 42.3167 -71.2333 216° Southwest 145 167 4,700 -300 Descending KA90
06:38PM 42.2667 -71.2167 166° South 156 180 4,400 -300 Descending KA90
06:39PM 42.2333 -71.2000 160° South 157 181 4,100 -360 Descending KA90
06:40PM 42.2167 -71.1500 114° Southeast 166 191 3,700 -480 Descending KA90
06:41PM 42.2167 -71.1000 90° East 174 200 3,200 -600 Descending KA90
06:42PM 42.2500 -71.0500 48° Northeast 183 211 2,600 -60 Descending KA90
06:43PM 42.2833 -71.0833 324° Northwest 165 190 3,100 240 Climbing KA90
06:44PM 42.3000 -71.1500 289° West 180 207 3,100  Level KA90
06:45PM 42.2667 -71.1667 200° South 161 185 3,100 -180 Level KA90
06:46PM 42.2333 -71.1333 143° Southeast 148 170 2,800 -300 Descending KA90